Time;durP1;ratioP1;P1;durP2;ratioP2;P2;SDS_P1;SDS_P2;PMS_P1;PMS_P2;Temp;Humidity;BMP_temperature;BMP_pressure;BME280_temperature;BME280_humidity;BME280_pressure;Samples;Min_cycle;Max_cycle;Signal;HPM_P1;HPM_P2
2022/08/11 00:01:31;;;;;;;2.57;1.50;;;13.90;57.90;;;;;;4179390;28;20189;-71
2022/08/11 00:03:32;;;;;;;1.83;1.60;;;14.00;58.20;;;;;;4180843;28;20196;-72
2022/08/11 00:05:44;;;;;;;1.80;1.70;;;13.90;58.10;;;;;;4180387;28;20176;-72
2022/08/11 00:07:48;;;;;;;1.90;1.80;;;13.90;58.20;;;;;;4180248;28;20210;-72
2022/08/11 00:09:48;;;;;;;2.77;2.00;;;13.90;58.60;;;;;;4180258;28;20188;-72
2022/08/11 00:11:54;;;;;;;2.80;1.70;;;13.80;58.80;;;;;;4179595;28;20176;-72
2022/08/11 00:13:54;;;;;;;2.67;1.67;;;13.80;59.00;;;;;;4179141;28;20695;-72
2022/08/11 00:15:56;;;;;;;1.43;1.33;;;13.80;58.80;;;;;;4179896;28;20184;-72
2022/08/11 00:17:58;;;;;;;1.87;1.77;;;13.80;58.80;;;;;;4179327;28;20179;-72
2022/08/11 00:20:11;;;;;;;2.73;1.77;;;13.80;59.10;;;;;;4178362;28;20207;-72
2022/08/11 00:22:20;;;;;;;1.70;1.60;;;13.80;58.90;;;;;;4179960;28;20192;-72
2022/08/11 00:24:22;;;;;;;2.90;1.87;;;13.80;59.10;;;;;;4180233;28;20676;-72
2022/08/11 00:26:24;;;;;;;3.37;1.63;;;13.70;59.20;;;;;;4180161;28;20184;-72
2022/08/11 00:28:32;;;;;;;2.90;1.90;;;13.70;59.40;;;;;;4180516;28;20258;-71
2022/08/11 00:30:39;;;;;;;1.87;1.77;;;13.70;59.20;;;;;;4179330;28;20266;-72
2022/08/11 00:32:44;;;;;;;2.40;1.63;;;13.70;59.20;;;;;;4178843;28;20207;-71
2022/08/11 00:34:46;;;;;;;3.03;2.43;;;13.80;59.20;;;;;;4178282;28;20180;-71
2022/08/11 00:36:53;;;;;;;3.70;2.00;;;13.80;58.90;;;;;;4179687;28;20234;-71
2022/08/11 00:39:01;;;;;;;1.77;1.60;;;13.90;58.70;;;;;;4180482;28;20220;-72
2022/08/11 00:41:10;;;;;;;1.93;1.73;;;13.80;59.00;;;;;;4182154;28;20659;-72
2022/08/11 00:43:19;;;;;;;1.70;1.60;;;13.80;59.10;;;;;;4183378;28;20230;-72
2022/08/11 00:45:33;;;;;;;2.37;2.00;;;13.80;58.90;;;;;;4181525;28;20180;-72
2022/08/11 00:47:45;;;;;;;2.67;1.70;;;13.70;59.40;;;;;;4183041;28;20176;-72
2022/08/11 00:50:04;;;;;;;3.10;1.73;;;13.70;60.80;;;;;;4181909;28;20175;-72
2022/08/11 00:52:32;;;;;;;4.30;1.83;;;13.60;59.70;;;;;;4182652;28;20207;-74
2022/08/11 00:54:38;;;;;;;2.97;2.13;;;13.60;59.90;;;;;;4181951;28;20184;-72
2022/08/11 00:57:31;;;;;;;2.13;1.93;;;13.50;60.10;;;;;;4184716;28;20187;-72
2022/08/11 01:00:11;;;;;;;1.90;1.70;;;13.40;60.60;;;;;;4171215;28;20228;-72
2022/08/11 01:02:44;;;;;;;1.80;1.30;;;13.40;60.90;;;;;;4182772;28;20211;-72
2022/08/11 01:05:11;;;;;;;2.97;1.70;;;13.40;60.60;;;;;;4172378;28;20737;-72
2022/08/11 01:07:48;;;;;;;2.23;1.80;;;13.40;60.60;;;;;;4183511;28;20291;-72
2022/08/11 01:09:52;;;;;;;2.70;1.80;;;13.40;60.90;;;;;;4183772;28;20176;-72
2022/08/11 01:11:56;;;;;;;2.43;2.00;;;13.40;60.80;;;;;;4182904;28;20204;-72
2022/08/11 01:14:09;;;;;;;1.73;1.50;;;13.40;60.70;;;;;;4182962;28;20710;-72
2022/08/11 01:16:53;;;;;;;2.53;2.03;;;13.50;60.50;;;;;;4181012;28;20182;-71
2022/08/11 01:19:16;;;;;;;1.80;1.70;;;13.40;60.70;;;;;;4181420;28;20261;-72
2022/08/11 01:21:32;;;;;;;2.60;1.73;;;13.50;60.70;;;;;;4180664;28;20180;-72
2022/08/11 01:23:41;;;;;;;2.13;1.70;;;13.40;60.70;;;;;;4181348;28;20255;-72
2022/08/11 01:25:48;;;;;;;1.90;1.80;;;13.40;61.10;;;;;;4181100;28;20930;-72
2022/08/11 01:28:22;;;;;;;1.87;1.77;;;13.40;61.00;;;;;;4181140;28;20684;-72
2022/08/11 01:30:41;;;;;;;2.23;2.03;;;13.30;61.50;;;;;;4180322;28;20636;-71
2022/08/11 01:33:12;;;;;;;2.10;2.00;;;13.30;61.80;;;;;;4181373;28;20727;-72
2022/08/11 01:35:39;;;;;;;2.13;1.93;;;13.20;62.20;;;;;;4181048;28;20180;-72
2022/08/11 01:37:51;;;;;;;2.13;2.03;;;13.10;62.50;;;;;;4181061;28;20219;-72
2022/08/11 01:40:13;;;;;;;2.13;1.93;;;13.00;62.70;;;;;;4179764;28;20188;-73
2022/08/11 01:45:38;;;;;;;2.07;1.87;;;13.00;63.50;;;;;;4180769;28;20175;-72
2022/08/11 01:47:50;;;;;;;3.07;2.10;;;12.90;64.60;;;;;;4181057;28;20188;-71
2022/08/11 01:50:09;;;;;;;2.60;2.40;;;12.90;65.10;;;;;;4180681;28;20183;-72
2022/08/11 01:52:27;;;;;;;3.00;1.93;;;12.80;64.10;;;;;;4161545;28;20282;-72
2022/08/11 01:54:47;;;;;;;3.03;2.20;;;12.80;64.70;;;;;;4180567;28;20307;-72
2022/08/11 01:56:52;;;;;;;2.57;2.10;;;12.70;65.10;;;;;;4180737;28;20550;-71
2022/08/11 01:59:19;;;;;;;2.87;2.07;;;12.70;65.50;;;;;;4180683;28;20216;-71
2022/08/11 02:01:36;;;;;;;2.40;2.20;;;12.70;65.50;;;;;;4179900;28;20251;-72
2022/08/11 02:03:54;;;;;;;2.20;1.97;;;12.60;65.60;;;;;;4180332;28;20267;-72
2022/08/11 02:06:00;;;;;;;2.20;2.10;;;12.60;66.90;;;;;;4179084;28;20610;-72
2022/08/11 02:08:21;;;;;;;2.17;1.97;;;12.60;66.10;;;;;;4179120;28;20192;-71
2022/08/11 02:13:19;;;;;;;2.10;1.90;;;12.60;65.80;;;;;;4174946;28;20290;-72
2022/08/11 02:15:28;;;;;;;5.77;2.13;;;12.60;66.10;;;;;;4179830;28;20215;-72
2022/08/11 02:17:40;;;;;;;4.43;2.20;;;12.50;66.40;;;;;;4180118;28;20210;-71
2022/08/11 02:25:05;;;;;;;2.90;2.03;;;12.30;67.30;;;;;;4180183;28;20601;-72
2022/08/11 02:27:15;;;;;;;2.40;2.20;;;12.40;67.60;;;;;;4180157;28;20179;-72
2022/08/11 02:29:41;;;;;;;3.13;2.53;;;12.30;67.70;;;;;;4180070;28;20190;-72
2022/08/11 02:34:43;;;;;;;3.23;2.30;;;12.20;68.60;;;;;;4180074;28;20174;-72
2022/08/11 02:37:15;;;;;;;2.43;2.23;;;12.10;68.80;;;;;;4179909;28;20168;-72
2022/08/11 02:39:18;;;;;;;2.37;2.17;;;12.10;68.90;;;;;;4179709;28;20212;-72
2022/08/11 02:44:33;;;;;;;4.20;2.17;;;12.10;69.20;;;;;;4180238;28;20198;-72
2022/08/11 02:46:46;;;;;;;2.07;1.97;;;12.10;69.40;;;;;;4179964;28;20175;-72
2022/08/11 02:51:53;;;;;;;3.87;2.03;;;12.10;69.60;;;;;;4179442;28;20253;-72
2022/08/11 02:54:52;;;;;;;4.60;1.90;;;12.10;69.50;;;;;;4179916;28;20184;-72
2022/08/11 02:57:01;;;;;;;2.53;2.03;;;12.10;69.30;;;;;;4163995;28;20192;-72
2022/08/11 03:01:48;;;;;;;2.40;2.20;;;12.10;69.80;;;;;;4167128;28;20322;-72
2022/08/11 03:03:56;;;;;;;2.40;2.20;;;12.10;69.70;;;;;;4179513;28;20190;-72
2022/08/11 03:06:27;;;;;;;3.23;2.00;;;12.00;69.90;;;;;;4179425;28;20285;-72
2022/08/11 03:08:51;;;;;;;2.50;2.30;;;12.00;70.30;;;;;;4179504;28;20176;-73
2022/08/11 03:18:48;;;;;;;2.93;2.20;;;11.80;71.70;;;;;;4179266;28;20720;-73
2022/08/11 03:21:01;;;;;;;2.37;2.17;;;11.80;72.20;;;;;;4178745;28;20265;-72
2022/08/11 03:23:22;;;;;;;2.33;2.10;;;11.80;71.80;;;;;;4179224;28;20207;-72
2022/08/11 03:25:36;;;;;;;3.10;2.17;;;11.80;72.20;;;;;;4179197;28;20175;-72
2022/08/11 03:27:51;;;;;;;2.27;2.07;;;11.70;72.60;;;;;;4179085;28;20272;-72
2022/08/11 03:30:13;;;;;;;3.70;2.10;;;11.70;72.60;;;;;;4178934;28;20282;-72
2022/08/11 03:32:32;;;;;;;2.80;2.60;;;11.60;72.50;;;;;;4178922;28;20200;-73
2022/08/11 03:34:36;;;;;;;3.03;2.60;;;11.60;72.90;;;;;;4177788;28;20187;-73
2022/08/11 03:37:10;;;;;;;2.77;2.00;;;11.60;73.10;;;;;;4178970;28;20559;-73
2022/08/11 03:39:48;;;;;;;2.60;2.30;;;11.60;73.40;;;;;;4178924;28;20203;-73
2022/08/11 03:42:05;;;;;;;4.73;2.60;;;11.60;73.70;;;;;;4178339;28;20714;-73
2022/08/11 03:44:14;;;;;;;2.60;2.13;;;11.60;75.00;;;;;;4177507;28;20223;-73
2022/08/11 03:46:44;;;;;;;4.20;2.60;;;11.50;74.10;;;;;;4178937;28;20160;-73
2022/08/11 03:49:03;;;;;;;3.27;2.10;;;11.50;74.50;;;;;;4178982;28;20173;-72
2022/08/11 03:51:29;;;;;;;2.70;2.50;;;11.40;74.60;;;;;;4178327;28;20172;-73
2022/08/11 03:53:38;;;;;;;3.50;2.33;;;11.50;74.80;;;;;;4178960;28;20285;-73
2022/08/11 03:56:04;;;;;;;2.40;2.20;;;11.50;74.70;;;;;;4178780;28;20714;-73
2022/08/11 03:58:30;;;;;;;4.13;2.60;;;11.40;75.20;;;;;;4177520;28;20222;-72
2022/08/11 04:00:43;;;;;;;2.63;2.43;;;11.40;75.10;;;;;;4178163;28;20249;-73
2022/08/11 04:03:20;;;;;;;4.00;2.70;;;11.40;75.40;;;;;;4177531;28;20203;-72
2022/08/11 04:05:59;;;;;;;2.60;2.40;;;11.40;75.60;;;;;;4178804;28;20567;-73
2022/08/11 04:08:09;;;;;;;3.30;2.33;;;11.40;75.90;;;;;;4178782;28;20365;-73
2022/08/11 04:10:47;;;;;;;3.27;2.20;;;11.30;76.20;;;;;;4178592;28;20183;-73
2022/08/11 04:13:16;;;;;;;2.60;2.40;;;11.30;76.00;;;;;;4178737;28;20296;-73
2022/08/11 04:15:59;;;;;;;4.50;2.43;;;11.30;75.90;;;;;;4181224;28;20180;-73
2022/08/11 04:18:19;;;;;;;3.90;2.27;;;11.30;76.50;;;;;;4182247;28;20182;-73
2022/08/11 04:21:07;;;;;;;2.87;2.67;;;11.20;77.00;;;;;;4181475;28;20187;-73
2022/08/11 04:23:25;;;;;;;2.50;2.30;;;11.30;77.40;;;;;;4182477;28;20226;-73
2022/08/11 04:26:13;;;;;;;2.87;2.67;;;11.20;77.20;;;;;;4182155;28;20171;-74
2022/08/11 04:28:32;;;;;;;3.17;2.60;;;11.20;77.20;;;;;;4182415;28;20201;-74
2022/08/11 04:30:57;;;;;;;4.03;2.20;;;11.30;76.80;;;;;;4170980;28;20198;-73
2022/08/11 04:32:58;;;;;;;3.50;2.50;;;11.40;76.60;;;;;;4182152;28;20207;-74
2022/08/11 04:35:22;;;;;;;2.90;2.70;;;11.30;76.50;;;;;;4182286;28;20229;-72
2022/08/11 04:37:35;;;;;;;3.70;2.17;;;11.40;76.40;;;;;;4182261;28;20167;-73
2022/08/11 04:40:04;;;;;;;2.80;2.60;;;11.40;76.70;;;;;;4180765;28;20810;-74
2022/08/11 04:44:58;;;;;;;5.63;2.43;;;11.40;76.90;;;;;;4181966;28;20186;-74
2022/08/11 05:03:13;;;;;;;2.57;2.37;;;11.60;76.10;;;;;;4165268;28;20218;-74
2022/08/11 05:05:45;;;;;;;5.03;2.53;;;11.60;76.60;;;;;;4181076;28;20180;-74
2022/08/11 05:08:23;;;;;;;2.90;2.60;;;11.60;77.20;;;;;;4180325;28;20559;-73
2022/08/11 05:10:47;;;;;;;4.70;2.57;;;11.60;77.00;;;;;;4180442;28;20191;-73
2022/08/11 05:12:54;;;;;;;3.67;2.10;;;11.60;77.20;;;;;;4179990;28;20210;-72
2022/08/11 05:34:50;;;;;;;3.63;2.10;;;12.40;75.70;;;;;;4181174;28;20176;-74
2022/08/11 05:36:56;;;;;;;3.67;2.13;;;12.60;75.00;;;;;;4179579;28;20231;-74
2022/08/11 05:58:09;;;;;;;2.93;2.20;;;13.30;72.20;;;;;;4180498;28;20258;-74
2022/08/11 06:00:11;;;;;;;2.67;2.13;;;13.30;72.60;;;;;;4179163;28;20703;-75
2022/08/11 06:02:12;;;;;;;2.67;2.47;;;13.40;72.40;;;;;;4170551;28;20326;-74
2022/08/11 06:04:22;;;;;;;5.17;3.00;;;13.40;72.10;;;;;;4170505;28;20199;-74
2022/08/11 06:06:27;;;;;;;2.57;2.37;;;13.50;71.40;;;;;;4177473;28;20168;-74
2022/08/11 06:08:36;;;;;;;5.07;2.60;;;13.50;71.30;;;;;;4171632;28;20268;-74
2022/08/11 06:10:39;;;;;;;4.50;4.20;;;13.60;71.00;;;;;;4171628;28;20317;-74
2022/08/11 06:12:42;;;;;;;4.27;2.47;;;13.70;71.00;;;;;;4180224;28;20208;-74
2022/08/11 06:14:44;;;;;;;6.27;3.17;;;13.90;70.50;;;;;;4180189;28;20184;-74
2022/08/11 06:16:48;;;;;;;5.33;4.93;;;13.90;70.00;;;;;;4162237;28;20293;-73
2022/08/11 06:18:49;;;;;;;3.50;2.40;;;13.90;69.90;;;;;;4168996;28;20216;-74
2022/08/11 06:20:55;;;;;;;4.20;2.50;;;14.00;69.10;;;;;;4171152;28;20184;-74
2022/08/11 06:23:02;;;;;;;3.87;2.30;;;14.10;68.30;;;;;;4171730;28;20254;-73
2022/08/11 06:25:05;;;;;;;3.33;2.37;;;14.20;67.40;;;;;;4171671;28;20255;-74
2022/08/11 06:27:06;;;;;;;4.87;2.83;;;14.40;66.40;;;;;;4171663;28;20265;-74
2022/08/11 06:29:10;;;;;;;4.30;4.00;;;14.50;66.30;;;;;;4171546;28;20192;-74
2022/08/11 06:31:22;;;;;;;3.13;2.90;;;14.50;66.60;;;;;;4172546;28;20208;-74
2022/08/11 06:33:32;;;;;;;4.23;3.73;;;14.60;66.10;;;;;;4171319;28;20293;-72
2022/08/11 06:35:47;;;;;;;2.73;2.53;;;14.80;65.00;;;;;;4171331;28;20203;-73
2022/08/11 06:38:08;;;;;;;2.87;2.63;;;14.90;64.20;;;;;;4166431;28;20676;-73
2022/08/11 06:40:24;;;;;;;5.43;2.83;;;15.00;63.70;;;;;;4173033;28;20255;-73
2022/08/11 06:42:46;;;;;;;2.33;1.97;;;15.20;62.50;;;;;;4170413;28;20659;-73
2022/08/11 06:45:09;;;;;;;2.23;2.03;;;15.40;61.80;;;;;;4171153;28;20256;-73
2022/08/11 06:47:12;;;;;;;2.53;2.10;;;15.30;62.00;;;;;;4171006;28;20172;-73
2022/08/11 06:51:37;;;;;;;2.10;1.87;;;15.70;60.10;;;;;;4172587;28;20192;-73
2022/08/11 06:53:51;;;;;;;3.50;3.30;;;15.70;60.70;;;;;;4168711;28;20189;-73
2022/08/11 07:00:41;;;;;;;2.77;2.27;;;16.20;58.20;;;;;;4161587;28;20211;-74
2022/08/11 07:02:52;;;;;;;2.73;2.40;;;16.40;57.70;;;;;;4161836;28;20603;-74
2022/08/11 07:05:27;;;;;;;2.40;2.00;;;16.40;57.30;;;;;;4162197;28;20173;-74
2022/08/11 07:15:41;;;;;;;4.70;4.40;;;17.00;55.80;;;;;;4180295;28;20175;-79
2022/08/11 07:28:54;;;;;;;3.00;2.00;;;17.30;53.80;;;;;;4179779;28;20191;-74
2022/08/11 07:30:42;;;;;;;8.23;7.50;;;18.10;50.60;;;;;;4160677;28;20254;-74
2022/08/11 07:33:10;;;;;;;5.60;5.20;;;18.20;50.50;;;;;;4177884;28;20200;-73
2022/08/11 07:35:16;;;;;;;2.93;2.67;;;18.30;50.20;;;;;;4160974;28;20701;-73
2022/08/11 07:37:19;;;;;;;2.83;1.90;;;18.50;49.50;;;;;;4178079;28;20200;-74
2022/08/11 07:39:43;;;;;;;2.80;2.40;;;18.50;49.50;;;;;;4177941;28;20212;-73
2022/08/11 07:41:45;;;;;;;2.70;2.40;;;18.60;49.50;;;;;;4161058;28;20170;-73
2022/08/11 07:43:51;;;;;;;2.40;2.20;;;18.80;48.80;;;;;;4162733;28;20173;-73
2022/08/11 07:53:02;;;;;;;4.03;2.60;;;19.10;47.30;;;;;;4175552;28;20286;-74
2022/08/11 07:55:13;;;;;;;12.93;12.00;;;19.40;47.10;;;;;;4177704;28;20550;-73
2022/08/11 08:18:23;;;;;;;3.30;2.93;;;20.70;43.70;;;;;;4175221;28;20175;-74
2022/08/11 08:20:36;;;;;;;3.90;3.47;;;20.70;43.00;;;;;;4177019;28;20180;-74
2022/08/11 08:22:37;;;;;;;22.80;21.20;;;20.70;42.80;;;;;;4178174;28;20204;-75
2022/08/11 08:24:40;;;;;;;3.73;2.23;;;20.70;42.90;;;;;;4161128;28;20672;-74
2022/08/11 08:26:58;;;;;;;4.83;2.13;;;20.90;43.40;;;;;;4161060;28;20185;-75
2022/08/11 08:31:25;;;;;;;95.70;88.87;;;21.30;41.20;;;;;;4174771;28;20183;-75
2022/08/11 08:33:29;;;;;;;4.20;3.47;;;21.10;41.60;;;;;;4161039;28;20678;-74
2022/08/11 08:35:31;;;;;;;4.40;3.67;;;21.00;42.10;;;;;;4177666;28;20597;-74
2022/08/11 08:37:31;;;;;;;8.73;8.07;;;21.10;42.20;;;;;;4163116;28;20667;-74
2022/08/11 08:39:33;;;;;;;6.23;5.83;;;21.20;41.90;;;;;;4177927;28;20251;-75
2022/08/11 08:41:35;;;;;;;13.03;12.17;;;21.30;42.30;;;;;;4161622;28;20181;-74
2022/08/11 08:43:37;;;;;;;4.83;2.60;;;21.20;41.40;;;;;;4160940;28;20236;-74
2022/08/11 08:45:38;;;;;;;7.50;7.00;;;21.50;41.80;;;;;;4177313;28;20841;-75
2022/08/11 08:47:53;;;;;;;102.43;94.70;;;21.60;41.10;;;;;;4162115;28;20197;-74
2022/08/11 08:50:13;;;;;;;3.30;2.33;;;21.50;40.60;;;;;;4161022;28;20189;-75
2022/08/11 08:52:21;;;;;;;3.10;2.40;;;21.60;40.60;;;;;;4165504;28;20214;-74
2022/08/11 08:54:32;;;;;;;6.57;6.07;;;21.60;41.20;;;;;;4177295;28;20255;-74
2022/08/11 08:56:35;;;;;;;28.03;26.07;;;21.70;40.50;;;;;;4177233;28;20227;-73
2022/08/11 08:58:38;;;;;;;5.37;3.10;;;21.90;39.60;;;;;;4177934;28;20794;-74
2022/08/11 09:00:44;;;;;;;8.83;8.23;;;22.00;39.40;;;;;;4177711;28;20704;-73
2022/08/11 09:02:45;;;;;;;3.33;2.87;;;22.20;40.80;;;;;;4180145;28;20247;-74
2022/08/11 09:04:46;;;;;;;25.33;23.73;;;22.30;39.00;;;;;;4180320;28;20188;-74
2022/08/11 09:06:49;;;;;;;5.93;5.37;;;22.60;38.20;;;;;;4180019;28;20180;-73
2022/08/11 09:08:50;;;;;;;18.33;16.73;;;22.40;38.30;;;;;;4180210;28;20180;-73
2022/08/11 09:13:14;;;;;;;6.00;5.70;;;22.40;38.50;;;;;;4180370;28;20285;-74
2022/08/11 09:15:17;;;;;;;5.47;4.33;;;22.60;37.60;;;;;;4180160;28;20571;-74
2022/08/11 09:17:19;;;;;;;58.63;54.80;;;22.60;37.60;;;;;;4180160;28;20189;-74
2022/08/11 09:19:25;;;;;;;4.87;4.57;;;22.90;36.70;;;;;;4179882;28;20220;-74
2022/08/11 09:21:26;;;;;;;2.63;2.43;;;23.10;36.00;;;;;;4179438;28;20168;-74
2022/08/11 09:28:17;;;;;;;3.83;3.60;;;23.40;33.80;;;;;;4181168;28;20226;-74
2022/08/11 09:30:19;;;;;;;33.50;31.10;;;23.60;33.10;;;;;;4179268;28;20708;-73
2022/08/11 09:32:21;;;;;;;8.63;8.03;;;23.60;33.00;;;;;;4163264;28;20243;-73
2022/08/11 09:34:23;;;;;;;4.33;4.00;;;23.60;33.30;;;;;;4179547;28;20664;-73
2022/08/11 09:41:10;;;;;;;5.30;4.70;;;24.10;31.40;;;;;;4180175;28;20184;-74
2022/08/11 09:45:34;;;;;;;14.57;13.57;;;24.20;31.30;;;;;;4179513;28;20240;-73
2022/08/11 09:47:35;;;;;;;8.57;7.87;;;24.30;31.60;;;;;;4179438;28;20259;-73
2022/08/11 09:49:36;;;;;;;42.87;40.27;;;24.30;30.90;;;;;;4179329;28;20219;-74
2022/08/11 09:51:37;;;;;;;3.70;2.20;;;24.30;30.60;;;;;;4178494;28;20920;-74
2022/08/11 09:53:41;;;;;;;4.13;3.83;;;24.60;30.60;;;;;;4179577;28;20279;-72
2022/08/11 09:55:47;;;;;;;2.43;2.20;;;24.90;29.90;;;;;;4179282;28;20259;-74
2022/08/11 10:00:10;;;;;;;12.13;10.20;;;25.30;29.20;;;;;;4179405;28;20208;-74
2022/08/11 10:02:11;;;;;;;19.10;18.03;;;25.40;28.80;;;;;;4162316;28;20213;-74
2022/08/11 10:04:18;;;;;;;5.63;5.33;;;25.20;28.90;;;;;;4179065;28;20235;-74
2022/08/11 10:08:42;;;;;;;75.03;69.10;;;25.30;28.90;;;;;;4179744;28;20179;-74
2022/08/11 10:10:45;;;;;;;15.20;14.17;;;25.50;28.20;;;;;;4178824;28;20196;-74
2022/08/11 10:12:51;;;;;;;3.27;2.90;;;25.70;28.10;;;;;;4178302;28;20196;-73
2022/08/11 10:15:33;;;;;;;4.83;4.53;;;26.00;28.00;;;;;;4179335;28;20165;-74
2022/08/11 10:18:40;;;;;;;4.27;4.07;;;25.90;27.20;;;;;;4179330;28;20176;-72
2022/08/11 10:20:02;;;;;;;9.63;9.13;;;26.10;26.50;;;;;;4179244;28;20228;-72
2022/08/11 10:26:53;;;;;;;19.97;18.73;;;25.90;25.80;;;;;;4179417;28;20818;-73
2022/08/11 10:28:54;;;;;;;3.67;3.30;;;26.60;25.80;;;;;;4179380;28;20211;-73
2022/08/11 10:35:38;;;;;;;175.90;121.87;;;27.80;24.80;;;;;;4180219;28;20821;-72
2022/08/11 10:37:43;;;;;;;4.80;2.70;;;28.20;23.70;;;;;;4178778;28;20188;-72
2022/08/11 10:39:45;;;;;;;2.00;1.90;;;28.70;23.50;;;;;;4162413;28;20266;-73
2022/08/11 10:44:09;;;;;;;2.13;2.03;;;28.50;22.60;;;;;;4178960;28;20175;-73
2022/08/11 10:48:35;;;;;;;5.60;4.22;;;29.10;23.10;;;;;;4179232;28;20179;-72
2022/08/11 10:59:57;;;;;;;45.78;42.17;;;30.20;21.40;;;;;;4178867;28;20223;-71
2022/08/11 11:01:59;;;;;;;19.60;18.20;;;29.70;21.60;;;;;;4169472;28;20666;-71
2022/08/11 11:04:15;;;;;;;82.95;76.10;;;30.30;21.30;;;;;;4162253;28;20650;-71
2022/08/11 11:06:27;;;;;;;8.73;8.02;;;30.70;20.70;;;;;;4164243;28;20173;-71
2022/08/11 11:10:50;;;;;;;5.70;5.25;;;29.60;21.90;;;;;;4162567;28;20274;-72
2022/08/11 11:17:55;;;;;;;5.65;5.25;;;29.80;21.50;;;;;;4161920;28;20169;-70
2022/08/11 11:19:59;;;;;;;32.33;29.42;;;29.40;21.50;;;;;;4161604;28;20207;-71
2022/08/11 11:22:36;;;;;;;7.68;7.07;;;28.90;21.70;;;;;;4160769;28;20294;-70
2022/08/11 11:24:57;;;;;;;17.13;15.60;;;28.10;22.70;;;;;;4161433;28;20278;-71
2022/08/11 11:27:31;;;;;;;7.03;6.47;;;28.80;22.00;;;;;;4161533;28;20501;-71
2022/08/11 11:29:47;;;;;;;2.60;2.40;;;30.30;20.90;;;;;;4161243;28;20260;-71
2022/08/11 11:32:23;;;;;;;13.75;8.40;;;31.40;20.20;;;;;;4144956;28;20185;-71
2022/08/11 11:35:02;;;;;;;26.85;21.02;;;31.60;19.30;;;;;;4161323;28;20172;-71
2022/08/11 11:37:03;;;;;;;18.15;13.75;;;32.60;18.60;;;;;;4162596;28;20208;-71
2022/08/11 11:39:06;;;;;;;14.00;12.95;;;32.30;18.60;;;;;;4161169;28;20306;-71
2022/08/11 11:41:26;;;;;;;4.82;4.43;;;32.10;18.10;;;;;;4160887;28;20188;-71
2022/08/11 11:43:27;;;;;;;8.65;8.05;;;31.70;18.40;;;;;;4161604;28;20236;-71
2022/08/11 11:45:28;;;;;;;53.83;34.33;;;32.50;18.20;;;;;;4162875;28;20675;-71
2022/08/11 11:47:31;;;;;;;9.23;8.45;;;33.50;17.60;;;;;;4161485;28;20177;-71
2022/08/11 11:49:38;;;;;;;57.08;51.50;;;34.20;17.20;;;;;;4144997;28;20198;-71
2022/08/11 11:51:39;;;;;;;7.63;6.85;;;34.70;16.30;;;;;;4160561;28;20169;-70
2022/08/11 11:53:44;;;;;;;3.60;3.30;;;34.00;17.10;;;;;;4162342;28;20562;-71
2022/08/11 11:55:45;;;;;;;9.52;8.80;;;32.90;17.90;;;;;;4162373;28;20595;-70
2022/08/11 12:02:28;;;;;;;9.70;8.85;;;34.60;16.60;;;;;;4162674;28;20816;-70
2022/08/11 12:04:30;;;;;;;9.98;9.07;;;36.00;15.70;;;;;;4162273;28;20180;-71
2022/08/11 12:06:32;;;;;;;6.22;5.72;;;34.90;16.90;;;;;;4160930;28;20181;-71
2022/08/11 12:08:34;;;;;;;43.47;28.33;;;35.40;16.10;;;;;;4161139;28;20185;-71
2022/08/11 12:10:34;;;;;;;28.38;25.70;;;35.00;15.80;;;;;;4160558;28;20181;-71
2022/08/11 12:14:55;;;;;;;5.05;4.75;;;34.30;16.90;;;;;;4161337;28;20842;-71
2022/08/11 12:16:56;;;;;;;56.33;37.33;;;35.40;16.10;;;;;;4161110;28;20263;-71
2022/08/11 12:19:01;;;;;;;18.63;17.38;;;35.50;15.90;;;;;;4161071;28;20204;-71
2022/08/11 12:21:03;;;;;;;131.88;74.47;;;35.30;15.60;;;;;;4160404;28;20207;-71
2022/08/11 12:27:43;;;;;;;210.75;96.18;;;35.70;15.70;;;;;;4162224;28;20176;-71
2022/08/11 12:29:57;;;;;;;34.92;31.95;;;35.60;16.60;;;;;;4160976;28;20193;-71
2022/08/11 12:31:59;;;;;;;42.80;34.15;;;34.90;15.80;;;;;;4160290;28;20708;-71
2022/08/11 12:34:11;;;;;;;45.20;40.75;;;34.30;16.50;;;;;;4160800;28;20185;-71
2022/08/11 12:36:15;;;;;;;90.95;82.90;;;34.10;17.00;;;;;;4163103;28;20248;-71
2022/08/11 12:38:19;;;;;;;18.85;17.40;;;35.20;16.60;;;;;;4164119;28;20559;-71
2022/08/11 12:45:27;;;;;;;24.95;22.33;;;35.50;15.50;;;;;;4165304;28;20249;-71
2022/08/11 12:51:55;;;;;;;163.48;105.13;;;36.90;15.00;;;;;;4164271;28;20162;-71
2022/08/11 12:52:23;;;;;;;76.72;53.47;;;36.90;14.50;;;;;;4166515;28;20775;-72
2022/08/11 12:54:45;;;;;;;22.52;20.65;;;38.60;13.50;;;;;;4165238;28;20202;-72
2022/08/11 13:06:14;;;;;;;68.15;60.85;;;39.30;12.70;;;;;;4168894;28;20714;-73
2022/08/11 13:08:16;;;;;;;187.27;81.07;;;38.50;13.40;;;;;;4165015;28;20267;-71
2022/08/11 13:12:46;;;;;;;88.95;79.85;;;38.30;13.50;;;;;;4163370;28;20584;-71
2022/08/11 13:12:46;;;;;;;548.00;257.48;;;38.50;13.10;;;;;;4164074;28;20223;-71
2022/08/11 13:14:47;;;;;;;335.50;177.95;;;39.10;12.40;;;;;;4165004;28;20181;-72
2022/08/11 13:19:08;;;;;;;146.73;111.55;;;39.10;12.50;;;;;;4163874;28;20315;-71
2022/08/11 13:21:11;;;;;;;116.20;98.03;;;36.90;14.60;;;;;;4146656;28;20178;-72
2022/08/11 13:23:14;;;;;;;134.65;98.57;;;37.30;14.00;;;;;;4163658;28;20197;-71
2022/08/11 13:25:18;;;;;;;506.73;237.32;;;38.90;13.60;;;;;;4147078;28;20245;-72
2022/08/11 13:27:19;;;;;;;101.28;85.72;;;38.50;13.50;;;;;;4163342;28;20168;-72
2022/08/11 13:29:24;;;;;;;1024.53;422.65;;;38.50;13.10;;;;;;4163291;28;20413;-72
2022/08/11 13:31:25;;;;;;;197.68;175.43;;;39.20;13.60;;;;;;4162695;28;20271;-72
2022/08/11 13:33:26;;;;;;;377.38;242.40;;;38.80;13.30;;;;;;4146661;28;20348;-72
2022/08/11 13:35:29;;;;;;;277.25;152.32;;;38.20;13.60;;;;;;4163212;28;20240;-72
2022/08/11 13:37:30;;;;;;;117.30;102.05;;;37.90;12.80;;;;;;4163096;28;20192;-72
2022/08/11 13:39:33;;;;;;;726.70;306.02;;;38.60;13.40;;;;;;4163028;28;20216;-73
2022/08/11 13:41:38;;;;;;;188.05;98.78;;;38.40;12.90;;;;;;4162672;28;20259;-73
2022/08/11 13:43:40;;;;;;;457.42;271.65;;;38.30;13.30;;;;;;4179459;28;20173;-72
2022/08/11 13:45:43;;;;;;;121.38;108.68;;;38.90;13.00;;;;;;4163324;28;20221;-72
2022/08/11 13:47:45;;;;;;;168.88;115.15;;;40.10;12.80;;;;;;4145317;28;20181;-73
2022/08/11 13:49:46;;;;;;;472.33;215.18;;;40.30;12.60;;;;;;4179550;28;20180;-73
2022/08/11 13:51:47;;;;;;;600.30;278.00;;;41.00;11.80;;;;;;4162746;28;20189;-74
2022/08/11 13:53:48;;;;;;;183.43;165.95;;;39.50;12.60;;;;;;4163266;28;20181;-74
2022/08/11 13:55:49;;;;;;;212.25;148.18;;;39.70;12.70;;;;;;4163209;28;20181;-74
2022/08/11 13:57:53;;;;;;;249.23;206.73;;;40.90;11.70;;;;;;4162946;28;20323;-73
2022/08/11 14:00:08;;;;;;;258.65;168.40;;;40.00;12.10;;;;;;4162928;28;20296;-74
2022/08/11 14:02:15;;;;;;;237.32;145.63;;;39.80;12.40;;;;;;4162288;28;20243;-73
2022/08/11 14:04:30;;;;;;;137.35;95.20;;;39.40;13.10;;;;;;4164060;28;20815;-73
2022/08/11 14:06:31;;;;;;;1371.88;418.60;;;40.20;12.80;;;;;;4162907;28;20263;-73
2022/08/11 14:08:37;;;;;;;487.02;235.57;;;40.40;11.90;;;;;;4162916;28;20356;-73
2022/08/11 14:10:38;;;;;;;276.85;191.95;;;40.30;12.30;;;;;;4162122;28;20707;-74
2022/08/11 14:15:21;;;;;;;146.95;136.23;;;40.20;12.70;;;;;;4162923;28;20191;-74
2022/08/11 14:17:22;;;;;;;216.25;178.48;;;40.90;11.90;;;;;;4163872;28;20162;-72
2022/08/11 14:19:25;;;;;;;84.38;74.05;;;39.80;12.90;;;;;;4162538;28;20213;-71
2022/08/11 14:23:58;;;;;;;332.65;308.10;;;41.20;11.50;;;;;;4163889;28;20247;-73
2022/08/11 14:28:18;;;;;;;221.75;196.10;;;39.50;12.00;;;;;;4162571;28;20247;-73
2022/08/11 14:32:38;;;;;;;698.22;429.95;;;39.10;12.80;;;;;;4162657;28;20207;-72
2022/08/11 14:34:43;;;;;;;385.77;346.35;;;39.50;12.70;;;;;;4163593;28;20188;-72
2022/08/11 14:36:50;;;;;;;1999.90;999.90;;;39.70;12.40;;;;;;4163463;28;20191;-72
2022/08/11 14:38:55;;;;;;;371.17;258.67;;;37.20;13.80;;;;;;4162320;28;20701;-72
2022/08/11 14:48:03;;;;;;;1589.93;595.22;;;40.70;11.60;;;;;;4163220;28;20677;-72
2022/08/11 14:50:07;;;;;;;917.42;619.45;;;41.90;10.90;;;;;;4165159;28;20225;-73
2022/08/11 14:52:15;;;;;;;636.38;479.08;;;42.30;10.60;;;;;;4161320;28;20204;-72
2022/08/11 14:56:36;;;;;;;1317.70;442.02;;;41.40;11.20;;;;;;4162177;28;20231;-74
2022/08/11 14:58:37;;;;;;;663.38;375.85;;;41.30;11.40;;;;;;4161642;28;20211;-72
2022/08/11 15:00:40;;;;;;;468.98;300.30;;;40.80;12.00;;;;;;4161962;28;20263;-73
2022/08/11 15:05:04;;;;;;;345.17;287.02;;;41.30;11.50;;;;;;4162021;28;20235;-74
2022/08/11 15:07:05;;;;;;;847.83;451.58;;;40.60;12.20;;;;;;4161710;28;20190;-74
2022/08/11 15:09:06;;;;;;;760.85;396.17;;;41.60;11.20;;;;;;4161396;28;20268;-74
2022/08/11 15:12:07;;;;;;;1999.90;873.60;;;40.50;11.70;;;;;;4161037;28;20215;-74
2022/08/11 15:13:29;;;;;;;1015.40;510.13;;;39.40;12.60;;;;;;4161663;28;20220;-74
2022/08/11 15:17:55;;;;;;;1735.43;514.08;;;36.90;13.50;;;;;;4178234;28;20859;-75
2022/08/11 15:24:38;;;;;;;260.73;238.00;;;39.10;13.30;;;;;;4178285;28;20246;-75
2022/08/11 15:38:21;;;;;;;297.65;275.60;;;39.10;12.60;;;;;;4177963;28;20176;-74